createdAt,value
2019-03-16T00:00:25.885Z,81.82373
2019-03-16T00:05:48.498Z,80.480957
2019-03-16T00:11:11.801Z,80.444336
2019-03-16T00:16:34.466Z,81.719971
2019-03-16T00:21:57.164Z,80.999756
2019-03-16T00:27:19.830Z,80.688477
2019-03-16T00:32:42.445Z,81.103516
2019-03-16T00:38:05.078Z,80.0354
2019-03-16T00:43:27.686Z,78.588867
2019-03-16T00:48:51.378Z,81.170654
2019-03-16T00:54:14.042Z,79.107666
2019-03-16T00:59:36.735Z,80.792236
2019-03-16T01:04:59.336Z,80.480957
2019-03-16T01:10:22.241Z,80.13916
2019-03-16T01:15:45.557Z,80.175781
2019-03-16T01:21:08.194Z,79.211426
2019-03-16T01:26:30.813Z,81.82373
2019-03-16T01:31:53.499Z,82.342529
2019-03-16T01:37:16.107Z,81.82373
2019-03-16T01:42:38.771Z,82.13501
2019-03-16T01:48:02.062Z,81.964111
2019-03-16T01:53:24.779Z,82.958984
2019-03-16T01:58:47.448Z,81.82373
2019-03-16T02:04:10.075Z,82.23877
2019-03-16T02:09:32.773Z,83.514404
2019-03-16T02:14:55.402Z,83.862305
2019-03-16T02:20:18.085Z,84.381104
2019-03-16T02:25:40.691Z,85.241699
2019-03-16T02:31:04.794Z,85.144043
2019-03-16T02:36:28.487Z,85.205078
2019-03-16T02:41:51.198Z,86.132812
2019-03-16T02:47:14.018Z,85.620117
2019-03-16T02:52:36.700Z,85.931396
2019-03-16T02:58:00.111Z,87.17041
2019-03-16T03:03:29.559Z,87.103271
2019-03-16T03:08:46.448Z,86.444092
2019-03-16T03:14:09.166Z,86.029053
2019-03-16T03:19:31.784Z,87.683105
2019-03-16T03:24:54.463Z,85.516357
2019-03-16T03:30:18.164Z,85.723877
2019-03-16T03:35:41.074Z,84.753418
2019-03-16T03:41:02.715Z,85.577393
2019-03-16T03:46:26.437Z,85.931396
2019-03-16T03:51:49.052Z,86.791992
2019-03-16T03:57:12.537Z,86.029053
2019-03-16T04:02:35.194Z,86.791992
2019-03-16T04:07:58.794Z,86.895752
2019-03-16T04:13:21.474Z,86.547852
2019-03-16T04:18:44.080Z,86.999512
2019-03-16T04:24:07.706Z,86.383057
2019-03-16T04:29:30.376Z,86.791992
2019-03-16T04:34:52.998Z,88.757324
2019-03-16T04:40:15.658Z,84.130859
2019-03-16T04:45:38.368Z,79.418945
2019-03-16T04:51:01.083Z,75.152588
2019-03-16T04:56:23.749Z,77.630615
2019-03-16T05:01:47.151Z,81.628418
2019-03-16T05:07:09.823Z,81.903076
2019-03-16T05:12:32.562Z,83.282471
2019-03-16T05:17:55.213Z,82.763672
2019-03-16T05:23:17.944Z,86.419678
2019-03-16T05:28:40.533Z,85.040283
2019-03-16T05:34:04.031Z,82.971191
2019-03-16T05:39:27.371Z,85.180664
2019-03-16T05:44:50.074Z,88.842773
2019-03-16T05:50:12.770Z,88.427734
2019-03-16T05:55:35.426Z,89.874268
2019-03-16T06:00:58.220Z,90.948486
2019-03-16T06:06:20.839Z,90.637207
2019-03-16T06:11:43.471Z,93.060303
2019-03-16T06:17:06.994Z,94.140625
2019-03-16T06:22:29.654Z,95.489502
2019-03-16T06:27:52.555Z,96.520996
2019-03-16T06:33:15.510Z,98.016357
2019-03-16T06:38:39.534Z,98.638916
2019-03-16T06:44:02.440Z,99.32251
2019-03-16T06:49:25.298Z,99.627686
2019-03-16T06:54:48.243Z,99.993896
2019-03-16T07:00:10.960Z,99.993896
2019-03-16T07:05:38.537Z,99.79248
2019-03-16T07:10:58.008Z,99.688721
2019-03-16T07:16:20.732Z,99.993896
2019-03-16T07:21:43.777Z,99.993896
2019-03-16T07:27:06.463Z,99.481201
2019-03-16T07:32:30.363Z,99.377441
2019-03-16T07:37:53.067Z,99.993896
2019-03-16T07:43:16.039Z,99.847412
2019-03-16T07:49:16.431Z,99.993896
2019-03-16T07:54:39.175Z,99.993896
2019-03-16T08:00:01.870Z,99.993896
2019-03-16T08:05:24.560Z,99.993896
2019-03-16T08:10:47.326Z,99.993896
2019-03-16T08:16:10.139Z,99.993896
2019-03-16T08:21:32.819Z,99.993896
2019-03-16T08:26:55.596Z,99.993896
2019-03-16T08:32:19.228Z,99.993896
2019-03-16T08:37:41.902Z,99.993896
2019-03-16T08:43:03.609Z,99.993896
2019-03-16T08:48:26.372Z,99.993896
2019-03-16T08:53:49.259Z,99.993896
2019-03-16T08:59:12.051Z,99.993896
2019-03-16T09:04:34.772Z,99.993896
2019-03-16T09:09:57.460Z,99.993896
2019-03-16T09:15:20.182Z,99.993896
2019-03-16T09:20:42.849Z,99.993896
2019-03-16T09:26:06.157Z,99.993896
2019-03-16T09:31:28.860Z,99.993896
2019-03-16T09:36:51.550Z,99.993896
2019-03-16T09:42:14.285Z,99.993896
2019-03-16T09:47:36.968Z,99.993896
2019-03-16T09:52:59.788Z,99.993896
2019-03-16T09:58:30.900Z,99.993896
2019-03-16T10:03:46.210Z,99.993896
2019-03-16T10:09:08.865Z,99.993896
2019-03-16T10:14:31.687Z,99.993896
2019-03-16T10:19:54.407Z,99.993896
2019-03-16T10:25:17.161Z,99.993896
2019-03-16T10:30:39.904Z,99.993896
2019-03-16T10:36:02.557Z,99.993896
2019-03-16T10:41:26.005Z,99.993896
2019-03-16T10:46:48.820Z,99.993896
2019-03-16T10:52:11.643Z,99.993896
2019-03-16T10:57:34.323Z,99.993896
2019-03-16T11:02:57.280Z,99.542236
2019-03-16T11:08:20.659Z,99.993896
2019-03-16T11:13:43.390Z,99.993896
2019-03-16T11:19:06.168Z,99.993896
2019-03-16T11:24:28.951Z,99.993896
2019-03-16T11:29:51.699Z,99.993896
2019-03-16T11:35:16.970Z,99.993896
2019-03-16T11:40:39.726Z,99.993896
2019-03-16T11:46:02.486Z,99.993896
2019-03-16T11:51:26.129Z,99.993896
2019-03-16T11:56:48.813Z,99.993896
2019-03-16T12:02:11.479Z,99.133301
2019-03-16T12:07:34.526Z,97.650146
2019-03-16T12:12:58.343Z,95.703125
2019-03-16T12:18:23.026Z,94.885254
2019-03-16T12:23:56.308Z,94.842529
2019-03-16T12:29:33.743Z,92.791748
2019-03-16T12:34:52.190Z,90.948486
2019-03-16T12:40:15.052Z,90.496826
2019-03-16T12:45:37.705Z,90.29541
2019-03-16T12:51:03.113Z,91.052246
2019-03-16T12:56:25.994Z,91.418457
2019-03-16T13:01:49.155Z,88.861084
2019-03-16T13:07:11.845Z,88.818359
2019-03-16T13:12:34.809Z,89.27002
2019-03-16T13:17:57.581Z,87.792969
2019-03-16T13:23:20.255Z,87.792969
2019-03-16T13:28:43.607Z,88.140869
2019-03-16T13:34:06.375Z,87.634277
2019-03-16T13:39:29.108Z,87.384033
2019-03-16T13:44:52.479Z,86.462402
2019-03-16T13:50:15.205Z,85.546875
2019-03-16T13:55:38.067Z,86.975098
2019-03-16T14:01:00.841Z,84.216309
2019-03-16T14:06:24.017Z,84.521484
2019-03-16T14:11:46.884Z,85.38208
2019-03-16T14:17:09.846Z,85.137939
2019-03-16T14:22:32.728Z,83.496094
2019-03-16T14:27:55.649Z,84.112549
2019-03-16T14:33:18.633Z,84.460449
2019-03-16T14:38:41.599Z,84.661865
2019-03-16T14:44:04.584Z,85.27832
2019-03-16T14:49:30.983Z,84.558105
2019-03-16T14:55:03.060Z,85.479736
2019-03-16T15:00:37.512Z,85.687256
2019-03-16T15:05:49.616Z,85.687256
2019-03-16T15:11:12.346Z,84.460449
2019-03-16T15:16:35.004Z,83.740234
2019-03-16T15:21:57.672Z,83.843994
2019-03-16T15:27:20.644Z,84.558105
2019-03-16T15:32:43.494Z,82.678223
2019-03-16T15:38:06.151Z,82.373047
2019-03-16T15:43:28.820Z,81.92749
2019-03-16T15:48:51.815Z,81.207275
2019-03-16T15:54:14.440Z,81.311035
2019-03-16T15:59:39.235Z,80.187988
2019-03-16T16:05:02.033Z,80.224609
2019-03-16T16:10:24.941Z,78.649902
2019-03-16T16:15:47.942Z,78.753662
2019-03-16T16:21:10.542Z,77.319336
2019-03-16T16:26:33.170Z,77.423096
2019-03-16T16:31:57.867Z,77.319336
2019-03-16T16:37:22.177Z,78.240967
2019-03-16T16:42:48.837Z,76.538086
2019-03-16T16:48:11.749Z,77.459717
2019-03-16T16:53:34.702Z,75.170898
2019-03-16T16:58:57.503Z,75.170898
2019-03-16T17:04:21.685Z,76.641846
2019-03-16T17:09:45.612Z,76.23291
2019-03-16T17:15:08.514Z,77.288818
2019-03-16T17:20:31.285Z,76.33667
2019-03-16T17:25:54.407Z,78.009033
2019-03-16T17:31:17.957Z,78.112793
2019-03-16T17:36:40.860Z,78.112793
2019-03-16T17:42:04.116Z,78.826904
2019-03-16T17:47:29.241Z,79.168701
2019-03-16T17:52:52.211Z,79.13208
2019-03-16T17:58:15.391Z,79.541016
2019-03-16T18:03:39.492Z,79.888916
2019-03-16T18:09:02.546Z,80.401611
2019-03-16T18:14:25.518Z,80.090332
2019-03-16T18:19:49.456Z,79.376221
2019-03-16T18:25:12.344Z,78.723145
2019-03-16T18:30:35.036Z,78.930664
2019-03-16T18:36:06.752Z,78.009033
2019-03-16T18:41:29.649Z,77.496338
2019-03-16T18:46:52.706Z,78.009033
2019-03-16T18:52:17.278Z,77.392578
2019-03-16T18:57:40.057Z,77.087402
2019-03-16T19:03:03.118Z,77.600098
2019-03-16T19:08:26.847Z,77.905273
2019-03-16T19:13:50.227Z,78.009033
2019-03-16T19:19:13.057Z,77.496338
2019-03-16T19:24:38.176Z,76.983643
2019-03-16T19:30:01.646Z,76.367188
2019-03-16T19:35:24.807Z,78.045654
2019-03-16T19:40:47.857Z,77.636719
2019-03-16T19:46:10.933Z,76.574707
2019-03-16T19:51:33.400Z,76.879883
2019-03-16T19:56:56.361Z,76.470947
2019-03-16T20:02:20.458Z,76.782227
2019-03-16T20:07:43.435Z,76.269531
2019-03-16T20:13:06.233Z,77.288818
2019-03-16T20:18:29.151Z,77.600098
2019-03-16T20:23:52.314Z,77.288818
2019-03-16T20:29:16.427Z,76.782227
2019-03-16T20:34:40.213Z,77.905273
2019-03-16T20:40:03.265Z,77.600098
2019-03-16T20:45:26.607Z,77.496338
2019-03-16T20:50:49.451Z,76.879883
2019-03-16T20:56:13.129Z,77.191162
2019-03-16T21:01:36.496Z,77.496338
2019-03-16T21:06:59.354Z,77.600098
2019-03-16T21:12:22.373Z,77.496338
2019-03-16T21:17:46.279Z,76.983643
2019-03-16T21:23:09.397Z,77.703857
2019-03-16T21:28:32.419Z,77.392578
2019-03-16T21:33:55.327Z,77.600098
2019-03-16T21:39:18.378Z,77.087402
2019-03-16T21:44:42.219Z,77.288818
2019-03-16T21:50:05.068Z,76.538086
2019-03-16T21:55:28.580Z,76.983643
2019-03-16T22:00:51.428Z,76.538086
2019-03-16T22:06:14.360Z,76.745605
2019-03-16T22:11:37.086Z,76.843262
2019-03-16T22:17:00.646Z,76.092529
2019-03-16T22:22:23.937Z,76.196289
2019-03-16T22:27:46.843Z,76.843262
2019-03-16T22:33:10.171Z,76.843262
2019-03-16T22:38:33.219Z,76.538086
2019-03-16T22:43:56.097Z,77.667236
2019-03-16T22:49:18.914Z,77.258301
2019-03-16T22:54:41.582Z,76.947021
2019-03-16T23:00:04.365Z,77.459717
2019-03-16T23:05:27.130Z,77.868652
2019-03-16T23:10:50.630Z,77.258301
2019-03-16T23:16:15.480Z,77.563477
2019-03-16T23:21:38.385Z,77.764893
2019-03-16T23:27:01.888Z,77.459717
2019-03-16T23:32:24.607Z,77.764893
2019-03-16T23:37:47.414Z,77.972412
2019-03-16T23:43:10.093Z,79.23584
2019-03-16T23:48:32.752Z,78.790283
2019-03-16T23:53:55.538Z,78.790283
2019-03-16T23:59:18.207Z,79.13208
